sensor_id;sensor_type;location;lat;lon;timestamp;P1;durP1;ratioP1;P2;durP2;ratioP2
41677;SDS011;27364;49.026;8.712;2023-02-28T00:00:50;4.55;;;3.03;;
41677;SDS011;27364;49.026;8.712;2023-02-28T00:03:16;5.05;;;3.70;;
41677;SDS011;27364;49.026;8.712;2023-02-28T00:05:41;5.25;;;3.03;;
41677;SDS011;27364;49.026;8.712;2023-02-28T00:08:07;4.90;;;3.20;;
41677;SDS011;27364;49.026;8.712;2023-02-28T00:10:33;4.90;;;3.25;;
41677;SDS011;27364;49.026;8.712;2023-02-28T00:13:00;5.65;;;3.33;;
41677;SDS011;27364;49.026;8.712;2023-02-28T00:15:27;5.90;;;3.60;;
41677;SDS011;27364;49.026;8.712;2023-02-28T00:17:53;6.93;;;3.65;;
41677;SDS011;27364;49.026;8.712;2023-02-28T00:20:18;6.05;;;3.45;;
41677;SDS011;27364;49.026;8.712;2023-02-28T00:22:46;4.97;;;3.17;;
41677;SDS011;27364;49.026;8.712;2023-02-28T00:25:14;4.95;;;3.67;;
41677;SDS011;27364;49.026;8.712;2023-02-28T00:27:41;5.50;;;3.55;;
41677;SDS011;27364;49.026;8.712;2023-02-28T00:30:08;5.25;;;3.17;;
41677;SDS011;27364;49.026;8.712;2023-02-28T00:32:36;6.43;;;3.78;;
41677;SDS011;27364;49.026;8.712;2023-02-28T00:35:02;6.00;;;3.80;;
41677;SDS011;27364;49.026;8.712;2023-02-28T00:37:28;5.75;;;3.33;;
41677;SDS011;27364;49.026;8.712;2023-02-28T00:39:54;5.75;;;3.53;;
41677;SDS011;27364;49.026;8.712;2023-02-28T00:42:19;5.15;;;3.63;;
41677;SDS011;27364;49.026;8.712;2023-02-28T00:44:45;5.95;;;3.30;;
41677;SDS011;27364;49.026;8.712;2023-02-28T00:47:10;5.50;;;3.65;;
41677;SDS011;27364;49.026;8.712;2023-02-28T00:49:36;6.10;;;3.33;;
41677;SDS011;27364;49.026;8.712;2023-02-28T00:52:01;5.95;;;3.45;;
41677;SDS011;27364;49.026;8.712;2023-02-28T00:54:28;5.43;;;3.60;;
41677;SDS011;27364;49.026;8.712;2023-02-28T00:56:54;5.07;;;3.20;;
41677;SDS011;27364;49.026;8.712;2023-02-28T00:59:19;5.32;;;3.22;;
41677;SDS011;27364;49.026;8.712;2023-02-28T01:01:47;5.93;;;3.38;;
41677;SDS011;27364;49.026;8.712;2023-02-28T01:04:13;5.22;;;3.50;;
41677;SDS011;27364;49.026;8.712;2023-02-28T01:06:39;4.55;;;3.13;;
41677;SDS011;27364;49.026;8.712;2023-02-28T01:09:05;6.25;;;3.58;;
41677;SDS011;27364;49.026;8.712;2023-02-28T01:11:32;6.25;;;3.25;;
41677;SDS011;27364;49.026;8.712;2023-02-28T01:13:58;5.28;;;3.80;;
41677;SDS011;27364;49.026;8.712;2023-02-28T01:16:24;5.05;;;3.35;;
41677;SDS011;27364;49.026;8.712;2023-02-28T01:18:50;6.07;;;3.47;;
41677;SDS011;27364;49.026;8.712;2023-02-28T01:21:16;5.50;;;3.50;;
41677;SDS011;27364;49.026;8.712;2023-02-28T01:23:43;5.78;;;3.10;;
41677;SDS011;27364;49.026;8.712;2023-02-28T01:26:19;5.53;;;3.50;;
41677;SDS011;27364;49.026;8.712;2023-02-28T01:28:46;4.93;;;3.45;;
41677;SDS011;27364;49.026;8.712;2023-02-28T01:31:12;7.38;;;3.72;;
41677;SDS011;27364;49.026;8.712;2023-02-28T01:33:38;5.20;;;3.65;;
41677;SDS011;27364;49.026;8.712;2023-02-28T01:36:05;5.13;;;3.53;;
41677;SDS011;27364;49.026;8.712;2023-02-28T01:38:42;5.30;;;3.40;;
41677;SDS011;27364;49.026;8.712;2023-02-28T01:41:08;5.55;;;3.25;;
41677;SDS011;27364;49.026;8.712;2023-02-28T01:46:07;5.65;;;3.75;;
41677;SDS011;27364;49.026;8.712;2023-02-28T01:48:34;5.03;;;3.70;;
41677;SDS011;27364;49.026;8.712;2023-02-28T01:51:06;5.47;;;3.58;;
41677;SDS011;27364;49.026;8.712;2023-02-28T01:53:37;7.13;;;3.60;;
41677;SDS011;27364;49.026;8.712;2023-02-28T01:56:09;5.20;;;3.47;;
41677;SDS011;27364;49.026;8.712;2023-02-28T01:58:39;5.30;;;3.83;;
41677;SDS011;27364;49.026;8.712;2023-02-28T02:01:05;5.40;;;3.50;;
41677;SDS011;27364;49.026;8.712;2023-02-28T02:03:30;6.20;;;3.42;;
41677;SDS011;27364;49.026;8.712;2023-02-28T02:05:56;5.78;;;3.88;;
41677;SDS011;27364;49.026;8.712;2023-02-28T02:08:23;5.28;;;3.30;;
41677;SDS011;27364;49.026;8.712;2023-02-28T02:10:52;5.97;;;3.70;;
41677;SDS011;27364;49.026;8.712;2023-02-28T02:30:15;7.47;;;3.55;;
41677;SDS011;27364;49.026;8.712;2023-02-28T02:33:11;7.07;;;3.42;;
41677;SDS011;27364;49.026;8.712;2023-02-28T02:35:42;6.72;;;3.42;;
41677;SDS011;27364;49.026;8.712;2023-02-28T02:38:15;6.63;;;3.90;;
41677;SDS011;27364;49.026;8.712;2023-02-28T02:41:06;6.40;;;3.83;;
41677;SDS011;27364;49.026;8.712;2023-02-28T02:43:44;8.02;;;3.83;;
41677;SDS011;27364;49.026;8.712;2023-02-28T02:46:33;6.47;;;3.83;;
41677;SDS011;27364;49.026;8.712;2023-02-28T02:49:03;5.75;;;3.38;;
41677;SDS011;27364;49.026;8.712;2023-02-28T02:51:31;6.60;;;3.95;;
41677;SDS011;27364;49.026;8.712;2023-02-28T02:54:02;6.55;;;4.05;;
41677;SDS011;27364;49.026;8.712;2023-02-28T02:56:33;6.07;;;3.65;;
41677;SDS011;27364;49.026;8.712;2023-02-28T02:59:02;7.03;;;4.20;;
41677;SDS011;27364;49.026;8.712;2023-02-28T03:01:31;6.55;;;3.90;;
41677;SDS011;27364;49.026;8.712;2023-02-28T03:04:01;4.90;;;3.75;;
41677;SDS011;27364;49.026;8.712;2023-02-28T03:06:33;7.22;;;4.10;;
41677;SDS011;27364;49.026;8.712;2023-02-28T03:09:00;5.95;;;3.55;;
41677;SDS011;27364;49.026;8.712;2023-02-28T03:11:26;5.28;;;3.70;;
41677;SDS011;27364;49.026;8.712;2023-02-28T03:16:52;7.03;;;4.18;;
41677;SDS011;27364;49.026;8.712;2023-02-28T03:22:14;6.00;;;3.90;;
41677;SDS011;27364;49.026;8.712;2023-02-28T03:24:50;8.27;;;4.35;;
41677;SDS011;27364;49.026;8.712;2023-02-28T03:27:39;7.63;;;4.38;;
41677;SDS011;27364;49.026;8.712;2023-02-28T03:33:11;10.02;;;4.68;;
41677;SDS011;27364;49.026;8.712;2023-02-28T03:35:54;7.60;;;4.60;;
41677;SDS011;27364;49.026;8.712;2023-02-28T03:40:51;6.97;;;4.05;;
41677;SDS011;27364;49.026;8.712;2023-02-28T03:44:06;5.97;;;4.20;;
41677;SDS011;27364;49.026;8.712;2023-02-28T03:46:40;6.22;;;3.97;;
41677;SDS011;27364;49.026;8.712;2023-02-28T03:49:15;6.57;;;4.40;;
41677;SDS011;27364;49.026;8.712;2023-02-28T03:51:48;6.80;;;4.10;;
41677;SDS011;27364;49.026;8.712;2023-02-28T03:54:17;6.75;;;4.45;;
41677;SDS011;27364;49.026;8.712;2023-02-28T04:01:51;8.23;;;4.95;;
41677;SDS011;27364;49.026;8.712;2023-02-28T04:04:16;7.15;;;3.88;;
41677;SDS011;27364;49.026;8.712;2023-02-28T04:06:43;6.88;;;4.47;;
41677;SDS011;27364;49.026;8.712;2023-02-28T04:09:11;6.75;;;4.70;;
41677;SDS011;27364;49.026;8.712;2023-02-28T04:11:59;7.63;;;4.43;;
41677;SDS011;27364;49.026;8.712;2023-02-28T04:14:24;6.57;;;4.43;;
41677;SDS011;27364;49.026;8.712;2023-02-28T04:16:50;8.52;;;4.95;;
41677;SDS011;27364;49.026;8.712;2023-02-28T04:19:18;7.82;;;4.70;;
41677;SDS011;27364;49.026;8.712;2023-02-28T04:21:48;8.25;;;4.45;;
41677;SDS011;27364;49.026;8.712;2023-02-28T04:24:18;7.32;;;4.53;;
41677;SDS011;27364;49.026;8.712;2023-02-28T04:26:46;6.60;;;4.40;;
41677;SDS011;27364;49.026;8.712;2023-02-28T04:29:14;6.85;;;4.65;;
41677;SDS011;27364;49.026;8.712;2023-02-28T04:31:44;8.20;;;4.30;;
41677;SDS011;27364;49.026;8.712;2023-02-28T04:34:09;6.65;;;4.63;;
41677;SDS011;27364;49.026;8.712;2023-02-28T04:36:36;9.77;;;5.10;;
41677;SDS011;27364;49.026;8.712;2023-02-28T04:39:02;6.38;;;4.50;;
41677;SDS011;27364;49.026;8.712;2023-02-28T04:41:28;8.35;;;4.30;;
41677;SDS011;27364;49.026;8.712;2023-02-28T04:43:54;9.05;;;5.22;;
41677;SDS011;27364;49.026;8.712;2023-02-28T04:46:21;7.13;;;4.72;;
41677;SDS011;27364;49.026;8.712;2023-02-28T04:48:47;7.25;;;4.95;;
41677;SDS011;27364;49.026;8.712;2023-02-28T04:51:13;7.10;;;4.80;;
41677;SDS011;27364;49.026;8.712;2023-02-28T04:53:41;7.68;;;4.47;;
41677;SDS011;27364;49.026;8.712;2023-02-28T04:56:08;6.82;;;4.65;;
41677;SDS011;27364;49.026;8.712;2023-02-28T04:58:36;7.20;;;4.65;;
41677;SDS011;27364;49.026;8.712;2023-02-28T05:01:03;6.50;;;4.90;;
41677;SDS011;27364;49.026;8.712;2023-02-28T05:03:30;8.02;;;5.28;;
41677;SDS011;27364;49.026;8.712;2023-02-28T05:05:55;6.70;;;4.38;;
41677;SDS011;27364;49.026;8.712;2023-02-28T05:08:21;6.97;;;4.55;;
41677;SDS011;27364;49.026;8.712;2023-02-28T05:10:46;8.20;;;4.85;;
41677;SDS011;27364;49.026;8.712;2023-02-28T05:13:12;7.35;;;4.90;;
41677;SDS011;27364;49.026;8.712;2023-02-28T05:15:38;8.00;;;5.53;;
41677;SDS011;27364;49.026;8.712;2023-02-28T05:18:03;7.82;;;4.80;;
41677;SDS011;27364;49.026;8.712;2023-02-28T05:20:29;7.63;;;5.00;;
41677;SDS011;27364;49.026;8.712;2023-02-28T05:22:55;7.63;;;5.32;;
41677;SDS011;27364;49.026;8.712;2023-02-28T05:25:22;8.13;;;5.18;;
41677;SDS011;27364;49.026;8.712;2023-02-28T05:27:49;8.30;;;5.03;;
41677;SDS011;27364;49.026;8.712;2023-02-28T05:30:15;6.38;;;4.50;;
41677;SDS011;27364;49.026;8.712;2023-02-28T05:32:48;8.70;;;5.47;;
41677;SDS011;27364;49.026;8.712;2023-02-28T05:35:16;9.40;;;5.20;;
41677;SDS011;27364;49.026;8.712;2023-02-28T05:37:41;7.35;;;4.78;;
41677;SDS011;27364;49.026;8.712;2023-02-28T05:40:07;7.03;;;5.07;;
41677;SDS011;27364;49.026;8.712;2023-02-28T05:42:36;7.05;;;4.88;;
41677;SDS011;27364;49.026;8.712;2023-02-28T05:45:02;9.93;;;5.28;;
41677;SDS011;27364;49.026;8.712;2023-02-28T05:47:28;8.88;;;5.18;;
41677;SDS011;27364;49.026;8.712;2023-02-28T05:49:54;7.13;;;5.10;;
41677;SDS011;27364;49.026;8.712;2023-02-28T05:52:19;7.95;;;5.03;;
41677;SDS011;27364;49.026;8.712;2023-02-28T05:54:46;8.07;;;5.10;;
41677;SDS011;27364;49.026;8.712;2023-02-28T05:57:11;9.30;;;5.50;;
41677;SDS011;27364;49.026;8.712;2023-02-28T05:59:37;7.68;;;4.85;;
41677;SDS011;27364;49.026;8.712;2023-02-28T06:02:05;9.13;;;5.50;;
41677;SDS011;27364;49.026;8.712;2023-02-28T06:04:35;8.02;;;4.65;;
41677;SDS011;27364;49.026;8.712;2023-02-28T06:07:01;7.70;;;4.72;;
41677;SDS011;27364;49.026;8.712;2023-02-28T06:09:26;10.13;;;5.63;;
41677;SDS011;27364;49.026;8.712;2023-02-28T06:11:52;7.22;;;4.90;;
41677;SDS011;27364;49.026;8.712;2023-02-28T06:14:18;8.60;;;5.30;;
41677;SDS011;27364;49.026;8.712;2023-02-28T06:16:44;8.27;;;5.20;;
41677;SDS011;27364;49.026;8.712;2023-02-28T06:19:10;7.95;;;5.00;;
41677;SDS011;27364;49.026;8.712;2023-02-28T06:21:36;7.47;;;5.00;;
41677;SDS011;27364;49.026;8.712;2023-02-28T06:24:02;8.63;;;5.43;;
41677;SDS011;27364;49.026;8.712;2023-02-28T06:26:29;8.07;;;4.78;;
41677;SDS011;27364;49.026;8.712;2023-02-28T06:28:55;7.45;;;4.97;;
41677;SDS011;27364;49.026;8.712;2023-02-28T06:31:26;8.38;;;5.15;;
41677;SDS011;27364;49.026;8.712;2023-02-28T06:33:54;7.20;;;5.25;;
41677;SDS011;27364;49.026;8.712;2023-02-28T06:36:20;9.00;;;5.30;;
41677;SDS011;27364;49.026;8.712;2023-02-28T06:38:46;7.72;;;5.28;;
41677;SDS011;27364;49.026;8.712;2023-02-28T06:41:18;8.07;;;5.15;;
41677;SDS011;27364;49.026;8.712;2023-02-28T06:43:43;7.40;;;5.20;;
41677;SDS011;27364;49.026;8.712;2023-02-28T06:46:12;8.05;;;5.25;;
41677;SDS011;27364;49.026;8.712;2023-02-28T06:48:39;7.18;;;5.22;;
41677;SDS011;27364;49.026;8.712;2023-02-28T06:51:09;8.23;;;5.00;;
41677;SDS011;27364;49.026;8.712;2023-02-28T06:53:38;10.05;;;5.63;;
41677;SDS011;27364;49.026;8.712;2023-02-28T06:56:05;7.43;;;5.07;;
41677;SDS011;27364;49.026;8.712;2023-02-28T06:58:32;8.68;;;5.55;;
41677;SDS011;27364;49.026;8.712;2023-02-28T07:00:59;9.30;;;5.32;;
41677;SDS011;27364;49.026;8.712;2023-02-28T07:03:24;7.35;;;5.55;;
41677;SDS011;27364;49.026;8.712;2023-02-28T07:05:50;8.20;;;5.30;;
41677;SDS011;27364;49.026;8.712;2023-02-28T07:08:16;8.23;;;5.03;;
41677;SDS011;27364;49.026;8.712;2023-02-28T07:10:41;8.50;;;5.35;;
41677;SDS011;27364;49.026;8.712;2023-02-28T07:13:07;9.52;;;5.75;;
41677;SDS011;27364;49.026;8.712;2023-02-28T07:15:34;9.75;;;5.82;;
41677;SDS011;27364;49.026;8.712;2023-02-28T07:18:02;9.77;;;5.82;;
41677;SDS011;27364;49.026;8.712;2023-02-28T07:20:28;11.68;;;6.07;;
41677;SDS011;27364;49.026;8.712;2023-02-28T07:22:54;9.30;;;5.85;;
41677;SDS011;27364;49.026;8.712;2023-02-28T07:25:22;7.78;;;5.80;;
41677;SDS011;27364;49.026;8.712;2023-02-28T07:27:48;8.98;;;5.55;;
41677;SDS011;27364;49.026;8.712;2023-02-28T07:30:13;7.45;;;5.18;;
41677;SDS011;27364;49.026;8.712;2023-02-28T07:32:39;9.23;;;5.47;;
41677;SDS011;27364;49.026;8.712;2023-02-28T07:35:05;10.02;;;6.00;;
41677;SDS011;27364;49.026;8.712;2023-02-28T07:37:30;9.00;;;5.82;;
41677;SDS011;27364;49.026;8.712;2023-02-28T07:40:01;8.82;;;6.03;;
41677;SDS011;27364;49.026;8.712;2023-02-28T07:42:31;9.40;;;5.90;;
41677;SDS011;27364;49.026;8.712;2023-02-28T07:44:57;9.27;;;6.00;;
41677;SDS011;27364;49.026;8.712;2023-02-28T07:47:23;8.73;;;5.78;;
41677;SDS011;27364;49.026;8.712;2023-02-28T07:49:49;8.05;;;5.55;;
41677;SDS011;27364;49.026;8.712;2023-02-28T07:52:15;10.43;;;5.97;;
41677;SDS011;27364;49.026;8.712;2023-02-28T07:54:40;10.23;;;6.32;;
41677;SDS011;27364;49.026;8.712;2023-02-28T07:57:06;9.15;;;5.97;;
41677;SDS011;27364;49.026;8.712;2023-02-28T07:59:31;8.27;;;5.75;;
41677;SDS011;27364;49.026;8.712;2023-02-28T08:01:57;7.85;;;5.88;;
41677;SDS011;27364;49.026;8.712;2023-02-28T08:04:24;10.32;;;6.00;;
41677;SDS011;27364;49.026;8.712;2023-02-28T08:06:50;9.98;;;6.32;;
41677;SDS011;27364;49.026;8.712;2023-02-28T08:09:17;8.65;;;6.10;;
41677;SDS011;27364;49.026;8.712;2023-02-28T08:11:44;10.82;;;6.70;;
41677;SDS011;27364;49.026;8.712;2023-02-28T08:14:09;10.60;;;6.40;;
41677;SDS011;27364;49.026;8.712;2023-02-28T08:16:35;9.25;;;6.47;;
41677;SDS011;27364;49.026;8.712;2023-02-28T08:19:00;12.32;;;7.47;;
41677;SDS011;27364;49.026;8.712;2023-02-28T08:21:26;9.30;;;6.40;;
41677;SDS011;27364;49.026;8.712;2023-02-28T08:23:51;11.00;;;6.85;;
41677;SDS011;27364;49.026;8.712;2023-02-28T08:26:17;10.00;;;6.47;;
41677;SDS011;27364;49.026;8.712;2023-02-28T08:28:44;8.70;;;6.15;;
41677;SDS011;27364;49.026;8.712;2023-02-28T08:31:10;9.68;;;6.47;;
41677;SDS011;27364;49.026;8.712;2023-02-28T08:33:38;10.80;;;7.03;;
41677;SDS011;27364;49.026;8.712;2023-02-28T08:36:04;9.20;;;7.13;;
41677;SDS011;27364;49.026;8.712;2023-02-28T08:38:31;8.30;;;6.43;;
41677;SDS011;27364;49.026;8.712;2023-02-28T08:40:57;10.77;;;6.82;;
41677;SDS011;27364;49.026;8.712;2023-02-28T08:43:24;10.95;;;6.88;;
41677;SDS011;27364;49.026;8.712;2023-02-28T08:45:53;8.82;;;6.35;;
41677;SDS011;27364;49.026;8.712;2023-02-28T08:48:21;8.73;;;6.45;;
41677;SDS011;27364;49.026;8.712;2023-02-28T08:51:01;9.48;;;6.93;;
41677;SDS011;27364;49.026;8.712;2023-02-28T08:53:30;13.45;;;7.25;;
41677;SDS011;27364;49.026;8.712;2023-02-28T08:56:01;10.55;;;7.60;;
41677;SDS011;27364;49.026;8.712;2023-02-28T09:01:12;10.70;;;7.38;;
41677;SDS011;27364;49.026;8.712;2023-02-28T09:03:41;11.15;;;7.45;;
41677;SDS011;27364;49.026;8.712;2023-02-28T09:06:07;10.07;;;6.82;;
41677;SDS011;27364;49.026;8.712;2023-02-28T09:08:34;9.20;;;7.03;;
41677;SDS011;27364;49.026;8.712;2023-02-28T09:11:01;10.80;;;7.35;;
41677;SDS011;27364;49.026;8.712;2023-02-28T09:13:31;10.52;;;7.07;;
41677;SDS011;27364;49.026;8.712;2023-02-28T09:16:00;10.23;;;7.43;;
41677;SDS011;27364;49.026;8.712;2023-02-28T09:18:27;9.55;;;7.07;;
41677;SDS011;27364;49.026;8.712;2023-02-28T09:20:52;10.32;;;7.20;;
41677;SDS011;27364;49.026;8.712;2023-02-28T09:23:18;11.63;;;7.75;;
41677;SDS011;27364;49.026;8.712;2023-02-28T09:25:48;10.43;;;7.40;;
41677;SDS011;27364;49.026;8.712;2023-02-28T09:28:15;12.18;;;7.68;;
41677;SDS011;27364;49.026;8.712;2023-02-28T09:30:44;11.57;;;7.55;;
41677;SDS011;27364;49.026;8.712;2023-02-28T09:35:36;11.45;;;7.68;;
41677;SDS011;27364;49.026;8.712;2023-02-28T09:38:02;11.68;;;7.22;;
41677;SDS011;27364;49.026;8.712;2023-02-28T09:40:28;12.23;;;7.20;;
41677;SDS011;27364;49.026;8.712;2023-02-28T09:42:55;12.15;;;7.60;;
41677;SDS011;27364;49.026;8.712;2023-02-28T09:48:03;10.52;;;7.93;;
41677;SDS011;27364;49.026;8.712;2023-02-28T09:50:41;10.35;;;7.30;;
41677;SDS011;27364;49.026;8.712;2023-02-28T09:53:26;9.30;;;6.97;;
41677;SDS011;27364;49.026;8.712;2023-02-28T09:55:58;9.65;;;6.93;;
41677;SDS011;27364;49.026;8.712;2023-02-28T09:58:41;10.60;;;7.32;;
41677;SDS011;27364;49.026;8.712;2023-02-28T10:01:56;10.65;;;7.63;;
41677;SDS011;27364;49.026;8.712;2023-02-28T10:04:43;11.57;;;7.57;;
41677;SDS011;27364;49.026;8.712;2023-02-28T10:12:52;10.50;;;7.80;;
41677;SDS011;27364;49.026;8.712;2023-02-28T10:15:19;12.13;;;8.30;;
41677;SDS011;27364;49.026;8.712;2023-02-28T10:17:51;10.75;;;8.00;;
41677;SDS011;27364;49.026;8.712;2023-02-28T10:20:21;10.60;;;7.82;;
41677;SDS011;27364;49.026;8.712;2023-02-28T10:25:45;11.32;;;8.02;;
41677;SDS011;27364;49.026;8.712;2023-02-28T10:28:17;11.27;;;8.35;;
41677;SDS011;27364;49.026;8.712;2023-02-28T10:30:50;10.38;;;8.07;;
41677;SDS011;27364;49.026;8.712;2023-02-28T10:33:19;11.02;;;8.43;;
41677;SDS011;27364;49.026;8.712;2023-02-28T10:35:47;11.73;;;8.27;;
41677;SDS011;27364;49.026;8.712;2023-02-28T10:38:32;11.30;;;8.63;;
41677;SDS011;27364;49.026;8.712;2023-02-28T10:43:39;11.30;;;7.93;;
41677;SDS011;27364;49.026;8.712;2023-02-28T10:48:39;10.25;;;7.68;;
41677;SDS011;27364;49.026;8.712;2023-02-28T10:51:10;11.38;;;8.27;;
41677;SDS011;27364;49.026;8.712;2023-02-28T10:53:45;13.43;;;8.75;;
41677;SDS011;27364;49.026;8.712;2023-02-28T11:03:59;12.25;;;8.75;;
41677;SDS011;27364;49.026;8.712;2023-02-28T11:06:26;12.82;;;9.10;;
41677;SDS011;27364;49.026;8.712;2023-02-28T11:08:59;12.75;;;8.77;;
41677;SDS011;27364;49.026;8.712;2023-02-28T11:11:28;13.75;;;8.15;;
41677;SDS011;27364;49.026;8.712;2023-02-28T11:13:57;12.90;;;8.10;;
41677;SDS011;27364;49.026;8.712;2023-02-28T11:16:32;12.50;;;9.35;;
41677;SDS011;27364;49.026;8.712;2023-02-28T11:19:01;11.65;;;8.57;;
41677;SDS011;27364;49.026;8.712;2023-02-28T11:21:33;12.82;;;8.73;;
41677;SDS011;27364;49.026;8.712;2023-02-28T11:26:57;10.70;;;7.70;;
41677;SDS011;27364;49.026;8.712;2023-02-28T11:34:39;13.60;;;8.27;;
41677;SDS011;27364;49.026;8.712;2023-02-28T11:39:35;12.55;;;8.75;;
41677;SDS011;27364;49.026;8.712;2023-02-28T11:42:26;13.05;;;8.70;;
41677;SDS011;27364;49.026;8.712;2023-02-28T11:48:14;14.05;;;7.53;;
41677;SDS011;27364;49.026;8.712;2023-02-28T12:02:00;13.10;;;8.63;;
41677;SDS011;27364;49.026;8.712;2023-02-28T12:13:21;12.48;;;8.25;;
41677;SDS011;27364;49.026;8.712;2023-02-28T12:21:27;12.68;;;8.65;;
41677;SDS011;27364;49.026;8.712;2023-02-28T12:29:14;15.43;;;8.70;;
41677;SDS011;27364;49.026;8.712;2023-02-28T12:32:03;12.82;;;9.27;;
41677;SDS011;27364;49.026;8.712;2023-02-28T12:34:42;10.70;;;8.07;;
41677;SDS011;27364;49.026;8.712;2023-02-28T12:37:41;10.20;;;8.15;;
41677;SDS011;27364;49.026;8.712;2023-02-28T12:40:25;11.13;;;8.55;;
41677;SDS011;27364;49.026;8.712;2023-02-28T12:42:58;12.07;;;9.20;;
41677;SDS011;27364;49.026;8.712;2023-02-28T12:45:48;10.18;;;8.25;;
41677;SDS011;27364;49.026;8.712;2023-02-28T12:48:24;11.43;;;8.80;;
41677;SDS011;27364;49.026;8.712;2023-02-28T12:51:04;10.15;;;8.38;;
41677;SDS011;27364;49.026;8.712;2023-02-28T12:56:21;11.65;;;8.20;;
41677;SDS011;27364;49.026;8.712;2023-02-28T13:02:24;10.60;;;8.50;;
41677;SDS011;27364;49.026;8.712;2023-02-28T13:04:36;10.45;;;8.30;;
41677;SDS011;27364;49.026;8.712;2023-02-28T13:10:03;10.43;;;8.30;;
41677;SDS011;27364;49.026;8.712;2023-02-28T13:12:31;10.93;;;8.52;;
41677;SDS011;27364;49.026;8.712;2023-02-28T13:17:49;11.70;;;8.32;;
41677;SDS011;27364;49.026;8.712;2023-02-28T13:20:18;12.27;;;9.40;;
41677;SDS011;27364;49.026;8.712;2023-02-28T13:22:48;12.95;;;8.75;;
41677;SDS011;27364;49.026;8.712;2023-02-28T13:27:46;10.30;;;8.52;;
41677;SDS011;27364;49.026;8.712;2023-02-28T13:33:36;10.85;;;9.48;;
41677;SDS011;27364;49.026;8.712;2023-02-28T14:03:34;10.38;;;7.25;;
41677;SDS011;27364;49.026;8.712;2023-02-28T14:13:56;11.63;;;9.23;;
41677;SDS011;27364;49.026;8.712;2023-02-28T14:16:26;10.93;;;8.75;;
41677;SDS011;27364;49.026;8.712;2023-02-28T14:19:11;11.48;;;9.20;;
41677;SDS011;27364;49.026;8.712;2023-02-28T14:30:26;11.25;;;9.43;;
41677;SDS011;27364;49.026;8.712;2023-02-28T14:38:41;10.93;;;8.98;;
41677;SDS011;27364;49.026;8.712;2023-02-28T14:41:30;10.57;;;8.52;;
41677;SDS011;27364;49.026;8.712;2023-02-28T14:44:00;10.65;;;8.80;;
41677;SDS011;27364;49.026;8.712;2023-02-28T14:46:37;12.48;;;8.52;;
41677;SDS011;27364;49.026;8.712;2023-02-28T14:49:05;12.15;;;9.00;;
41677;SDS011;27364;49.026;8.712;2023-02-28T14:51:32;13.25;;;10.88;;
41677;SDS011;27364;49.026;8.712;2023-02-28T14:54:00;12.07;;;9.60;;
41677;SDS011;27364;49.026;8.712;2023-02-28T14:56:32;11.40;;;8.85;;
41677;SDS011;27364;49.026;8.712;2023-02-28T14:59:01;11.40;;;9.02;;
41677;SDS011;27364;49.026;8.712;2023-02-28T15:01:27;10.98;;;8.68;;
41677;SDS011;27364;49.026;8.712;2023-02-28T15:04:01;10.98;;;9.05;;
41677;SDS011;27364;49.026;8.712;2023-02-28T15:06:29;11.55;;;9.05;;
41677;SDS011;27364;49.026;8.712;2023-02-28T15:11:42;10.15;;;8.63;;
41677;SDS011;27364;49.026;8.712;2023-02-28T15:14:16;10.50;;;8.70;;
41677;SDS011;27364;49.026;8.712;2023-02-28T15:16:44;11.68;;;8.65;;
41677;SDS011;27364;49.026;8.712;2023-02-28T15:19:24;11.00;;;9.10;;
41677;SDS011;27364;49.026;8.712;2023-02-28T15:21:59;10.90;;;9.40;;
41677;SDS011;27364;49.026;8.712;2023-02-28T15:24:51;11.53;;;9.40;;
41677;SDS011;27364;49.026;8.712;2023-02-28T15:27:20;12.40;;;9.98;;
41677;SDS011;27364;49.026;8.712;2023-02-28T15:29:50;11.10;;;9.55;;
41677;SDS011;27364;49.026;8.712;2023-02-28T15:32:26;10.50;;;9.02;;
41677;SDS011;27364;49.026;8.712;2023-02-28T15:34:52;12.30;;;9.40;;
41677;SDS011;27364;49.026;8.712;2023-02-28T15:37:33;10.52;;;9.00;;
41677;SDS011;27364;49.026;8.712;2023-02-28T15:42:37;13.80;;;10.07;;
41677;SDS011;27364;49.026;8.712;2023-02-28T15:45:03;11.38;;;9.90;;
41677;SDS011;27364;49.026;8.712;2023-02-28T15:47:29;11.93;;;8.95;;
41677;SDS011;27364;49.026;8.712;2023-02-28T15:50:00;12.98;;;10.23;;
41677;SDS011;27364;49.026;8.712;2023-02-28T15:52:37;12.27;;;9.43;;
41677;SDS011;27364;49.026;8.712;2023-02-28T15:57:42;11.68;;;9.50;;
41677;SDS011;27364;49.026;8.712;2023-02-28T16:00:12;10.93;;;9.32;;
41677;SDS011;27364;49.026;8.712;2023-02-28T16:02:40;11.73;;;9.75;;
41677;SDS011;27364;49.026;8.712;2023-02-28T16:07:31;10.43;;;8.93;;
41677;SDS011;27364;49.026;8.712;2023-02-28T16:09:57;14.13;;;9.30;;
41677;SDS011;27364;49.026;8.712;2023-02-28T16:12:27;11.93;;;9.95;;
41677;SDS011;27364;49.026;8.712;2023-02-28T16:14:56;13.35;;;10.10;;
41677;SDS011;27364;49.026;8.712;2023-02-28T16:17:28;12.18;;;9.48;;
41677;SDS011;27364;49.026;8.712;2023-02-28T16:19:56;13.90;;;9.80;;
41677;SDS011;27364;49.026;8.712;2023-02-28T16:22:23;12.48;;;10.00;;
41677;SDS011;27364;49.026;8.712;2023-02-28T16:24:48;11.38;;;9.18;;
41677;SDS011;27364;49.026;8.712;2023-02-28T16:27:16;12.88;;;9.82;;
41677;SDS011;27364;49.026;8.712;2023-02-28T16:29:49;12.82;;;9.88;;
41677;SDS011;27364;49.026;8.712;2023-02-28T16:32:15;11.88;;;9.85;;
41677;SDS011;27364;49.026;8.712;2023-02-28T16:34:42;13.82;;;10.55;;
41677;SDS011;27364;49.026;8.712;2023-02-28T16:37:13;16.00;;;11.85;;
41677;SDS011;27364;49.026;8.712;2023-02-28T16:39:42;16.20;;;11.82;;
41677;SDS011;27364;49.026;8.712;2023-02-28T16:42:15;16.73;;;12.07;;
41677;SDS011;27364;49.026;8.712;2023-02-28T16:44:50;14.60;;;10.75;;
41677;SDS011;27364;49.026;8.712;2023-02-28T16:47:16;16.40;;;11.60;;
41677;SDS011;27364;49.026;8.712;2023-02-28T16:49:43;15.43;;;10.55;;
41677;SDS011;27364;49.026;8.712;2023-02-28T16:52:10;14.40;;;10.48;;
41677;SDS011;27364;49.026;8.712;2023-02-28T16:54:37;13.13;;;9.95;;
41677;SDS011;27364;49.026;8.712;2023-02-28T16:57:04;13.82;;;10.50;;
41677;SDS011;27364;49.026;8.712;2023-02-28T16:59:31;15.13;;;11.05;;
41677;SDS011;27364;49.026;8.712;2023-02-28T17:01:57;12.90;;;10.38;;
41677;SDS011;27364;49.026;8.712;2023-02-28T17:04:25;13.25;;;10.45;;
41677;SDS011;27364;49.026;8.712;2023-02-28T17:06:51;12.32;;;9.88;;
41677;SDS011;27364;49.026;8.712;2023-02-28T17:09:18;11.55;;;9.60;;
41677;SDS011;27364;49.026;8.712;2023-02-28T17:11:45;12.43;;;9.93;;
41677;SDS011;27364;49.026;8.712;2023-02-28T17:14:11;13.25;;;10.10;;
41677;SDS011;27364;49.026;8.712;2023-02-28T17:16:38;16.23;;;11.38;;
41677;SDS011;27364;49.026;8.712;2023-02-28T17:19:09;15.57;;;12.23;;
41677;SDS011;27364;49.026;8.712;2023-02-28T17:21:38;14.07;;;11.35;;
41677;SDS011;27364;49.026;8.712;2023-02-28T17:24:06;14.80;;;11.35;;
41677;SDS011;27364;49.026;8.712;2023-02-28T17:26:32;15.10;;;11.20;;
41677;SDS011;27364;49.026;8.712;2023-02-28T17:28:57;12.60;;;10.50;;
41677;SDS011;27364;49.026;8.712;2023-02-28T17:31:26;13.45;;;10.68;;
41677;SDS011;27364;49.026;8.712;2023-02-28T17:33:53;13.68;;;10.40;;
41677;SDS011;27364;49.026;8.712;2023-02-28T17:36:23;14.18;;;11.23;;
41677;SDS011;27364;49.026;8.712;2023-02-28T17:38:50;14.88;;;11.65;;
41677;SDS011;27364;49.026;8.712;2023-02-28T17:41:17;16.55;;;11.68;;
41677;SDS011;27364;49.026;8.712;2023-02-28T17:43:43;17.20;;;12.85;;
41677;SDS011;27364;49.026;8.712;2023-02-28T17:46:14;16.55;;;12.13;;
41677;SDS011;27364;49.026;8.712;2023-02-28T17:48:43;16.42;;;12.40;;
41677;SDS011;27364;49.026;8.712;2023-02-28T17:51:10;15.30;;;11.43;;
41677;SDS011;27364;49.026;8.712;2023-02-28T17:53:37;17.45;;;12.88;;
41677;SDS011;27364;49.026;8.712;2023-02-28T17:56:03;14.80;;;11.93;;
41677;SDS011;27364;49.026;8.712;2023-02-28T17:58:29;13.90;;;10.70;;
41677;SDS011;27364;49.026;8.712;2023-02-28T18:00:55;13.90;;;11.48;;